sensor_id;sensor_type;location;lat;lon;timestamp;temperature;humidity
47354;DHT22;50657;48.830;2.282;2022-12-20T00:01:36;19.20;50.60
47354;DHT22;50657;48.830;2.282;2022-12-20T00:04:04;19.20;50.70
47354;DHT22;50657;48.830;2.282;2022-12-20T00:06:34;19.20;50.70
47354;DHT22;50657;48.830;2.282;2022-12-20T00:09:04;19.20;50.90
47354;DHT22;50657;48.830;2.282;2022-12-20T00:11:31;19.20;50.80
47354;DHT22;50657;48.830;2.282;2022-12-20T00:13:58;19.20;50.90
47354;DHT22;50657;48.830;2.282;2022-12-20T00:16:26;19.20;50.90
47354;DHT22;50657;48.830;2.282;2022-12-20T00:18:55;19.20;50.90
47354;DHT22;50657;48.830;2.282;2022-12-20T00:21:24;19.10;50.90
47354;DHT22;50657;48.830;2.282;2022-12-20T00:23:53;19.20;51.10
47354;DHT22;50657;48.830;2.282;2022-12-20T00:26:22;19.20;51.10
47354;DHT22;50657;48.830;2.282;2022-12-20T00:28:50;19.20;51.20
47354;DHT22;50657;48.830;2.282;2022-12-20T00:31:18;19.10;51.20
47354;DHT22;50657;48.830;2.282;2022-12-20T00:33:47;19.20;51.20
47354;DHT22;50657;48.830;2.282;2022-12-20T00:36:15;19.10;51.20
47354;DHT22;50657;48.830;2.282;2022-12-20T00:38:43;19.10;51.30
47354;DHT22;50657;48.830;2.282;2022-12-20T00:41:13;19.10;51.30
47354;DHT22;50657;48.830;2.282;2022-12-20T00:43:41;19.10;51.30
47354;DHT22;50657;48.830;2.282;2022-12-20T00:46:10;19.10;51.40
47354;DHT22;50657;48.830;2.282;2022-12-20T00:48:37;19.10;51.40
47354;DHT22;50657;48.830;2.282;2022-12-20T00:51:06;19.10;51.40
47354;DHT22;50657;48.830;2.282;2022-12-20T00:53:34;19.10;51.50
47354;DHT22;50657;48.830;2.282;2022-12-20T00:56:02;19.10;51.50
47354;DHT22;50657;48.830;2.282;2022-12-20T00:58:33;19.00;51.50
47354;DHT22;50657;48.830;2.282;2022-12-20T01:01:00;19.10;51.70
47354;DHT22;50657;48.830;2.282;2022-12-20T01:03:28;19.10;51.70
47354;DHT22;50657;48.830;2.282;2022-12-20T01:05:57;19.10;51.70
47354;DHT22;50657;48.830;2.282;2022-12-20T01:08:26;19.10;51.80
47354;DHT22;50657;48.830;2.282;2022-12-20T01:10:58;19.10;51.80
47354;DHT22;50657;48.830;2.282;2022-12-20T01:13:26;19.10;51.80
47354;DHT22;50657;48.830;2.282;2022-12-20T01:15:55;19.00;51.80
47354;DHT22;50657;48.830;2.282;2022-12-20T01:18:22;19.00;51.70
47354;DHT22;50657;48.830;2.282;2022-12-20T01:20:49;19.00;51.70
47354;DHT22;50657;48.830;2.282;2022-12-20T01:23:26;19.00;51.70
47354;DHT22;50657;48.830;2.282;2022-12-20T01:25:53;19.00;51.70
47354;DHT22;50657;48.830;2.282;2022-12-20T01:28:20;19.00;51.70
47354;DHT22;50657;48.830;2.282;2022-12-20T01:30:47;19.00;51.70
47354;DHT22;50657;48.830;2.282;2022-12-20T01:33:16;19.00;51.80
47354;DHT22;50657;48.830;2.282;2022-12-20T01:35:54;19.00;51.80
47354;DHT22;50657;48.830;2.282;2022-12-20T01:38:21;19.00;51.90
47354;DHT22;50657;48.830;2.282;2022-12-20T01:40:48;19.00;51.90
47354;DHT22;50657;48.830;2.282;2022-12-20T01:43:17;19.00;51.90
47354;DHT22;50657;48.830;2.282;2022-12-20T01:45:44;19.00;51.90
47354;DHT22;50657;48.830;2.282;2022-12-20T01:48:14;19.00;51.90
47354;DHT22;50657;48.830;2.282;2022-12-20T01:50:44;19.00;51.90
47354;DHT22;50657;48.830;2.282;2022-12-20T01:53:11;19.00;51.90
47354;DHT22;50657;48.830;2.282;2022-12-20T01:55:39;19.00;51.90
47354;DHT22;50657;48.830;2.282;2022-12-20T01:58:08;19.00;51.90
47354;DHT22;50657;48.830;2.282;2022-12-20T02:00:36;19.00;52.40
47354;DHT22;50657;48.830;2.282;2022-12-20T02:03:05;19.00;51.90
47354;DHT22;50657;48.830;2.282;2022-12-20T02:05:35;19.00;51.90
47354;DHT22;50657;48.830;2.282;2022-12-20T02:08:04;19.00;51.90
47354;DHT22;50657;48.830;2.282;2022-12-20T02:10:43;19.00;52.50
47354;DHT22;50657;48.830;2.282;2022-12-20T02:13:22;19.00;51.90
47354;DHT22;50657;48.830;2.282;2022-12-20T02:15:54;19.00;51.90
47354;DHT22;50657;48.830;2.282;2022-12-20T02:18:22;19.00;52.50
47354;DHT22;50657;48.830;2.282;2022-12-20T02:24:24;19.00;51.80
47354;DHT22;50657;48.830;2.282;2022-12-20T02:30:08;18.90;51.70
47354;DHT22;50657;48.830;2.282;2022-12-20T02:32:39;18.90;51.80
47354;DHT22;50657;48.830;2.282;2022-12-20T02:35:10;18.90;51.80
47354;DHT22;50657;48.830;2.282;2022-12-20T02:37:49;18.90;51.80
47354;DHT22;50657;48.830;2.282;2022-12-20T02:40:21;18.90;51.80
47354;DHT22;50657;48.830;2.282;2022-12-20T02:42:52;18.90;51.80
47354;DHT22;50657;48.830;2.282;2022-12-20T02:45:22;18.90;51.80
47354;DHT22;50657;48.830;2.282;2022-12-20T02:47:54;18.90;51.80
47354;DHT22;50657;48.830;2.282;2022-12-20T02:50:25;18.90;51.70
47354;DHT22;50657;48.830;2.282;2022-12-20T02:52:54;18.90;51.70
47354;DHT22;50657;48.830;2.282;2022-12-20T02:55:28;18.90;51.80
47354;DHT22;50657;48.830;2.282;2022-12-20T02:58:02;18.90;51.90
47354;DHT22;50657;48.830;2.282;2022-12-20T03:00:37;18.90;51.90
47354;DHT22;50657;48.830;2.282;2022-12-20T03:03:06;18.90;52.00
47354;DHT22;50657;48.830;2.282;2022-12-20T03:05:50;18.90;52.00
47354;DHT22;50657;48.830;2.282;2022-12-20T03:08:19;18.90;52.00
47354;DHT22;50657;48.830;2.282;2022-12-20T03:10:48;18.90;52.00
47354;DHT22;50657;48.830;2.282;2022-12-20T03:13:16;18.90;52.00
47354;DHT22;50657;48.830;2.282;2022-12-20T03:15:50;18.90;52.00
47354;DHT22;50657;48.830;2.282;2022-12-20T03:18:17;18.80;51.90
47354;DHT22;50657;48.830;2.282;2022-12-20T03:20:44;18.80;51.90
47354;DHT22;50657;48.830;2.282;2022-12-20T03:23:12;18.80;51.90
47354;DHT22;50657;48.830;2.282;2022-12-20T03:25:39;18.80;51.80
47354;DHT22;50657;48.830;2.282;2022-12-20T03:28:08;18.80;51.80
47354;DHT22;50657;48.830;2.282;2022-12-20T03:30:35;18.80;51.70
47354;DHT22;50657;48.830;2.282;2022-12-20T03:33:04;18.80;51.70
47354;DHT22;50657;48.830;2.282;2022-12-20T03:35:31;18.80;51.80
47354;DHT22;50657;48.830;2.282;2022-12-20T03:37:58;18.80;51.80
47354;DHT22;50657;48.830;2.282;2022-12-20T03:40:25;18.80;51.80
47354;DHT22;50657;48.830;2.282;2022-12-20T03:42:52;18.80;51.80
47354;DHT22;50657;48.830;2.282;2022-12-20T03:45:20;18.80;52.40
47354;DHT22;50657;48.830;2.282;2022-12-20T03:47:47;18.80;51.80
47354;DHT22;50657;48.830;2.282;2022-12-20T03:50:16;18.80;51.90
47354;DHT22;50657;48.830;2.282;2022-12-20T03:52:43;18.80;51.90
47354;DHT22;50657;48.830;2.282;2022-12-20T03:55:10;18.80;51.90
47354;DHT22;50657;48.830;2.282;2022-12-20T03:57:40;18.80;51.90
47354;DHT22;50657;48.830;2.282;2022-12-20T04:00:21;18.80;52.00
47354;DHT22;50657;48.830;2.282;2022-12-20T04:02:53;18.80;52.00
47354;DHT22;50657;48.830;2.282;2022-12-20T04:05:23;18.70;51.90
47354;DHT22;50657;48.830;2.282;2022-12-20T04:07:50;18.80;51.90
47354;DHT22;50657;48.830;2.282;2022-12-20T04:10:17;18.70;51.90
47354;DHT22;50657;48.830;2.282;2022-12-20T04:12:44;18.70;51.90
47354;DHT22;50657;48.830;2.282;2022-12-20T04:15:13;18.80;51.90
47354;DHT22;50657;48.830;2.282;2022-12-20T04:17:42;18.80;51.90
47354;DHT22;50657;48.830;2.282;2022-12-20T04:20:13;18.80;51.90
47354;DHT22;50657;48.830;2.282;2022-12-20T04:23:02;18.80;52.00
47354;DHT22;50657;48.830;2.282;2022-12-20T04:25:30;18.70;52.00
47354;DHT22;50657;48.830;2.282;2022-12-20T04:27:57;18.70;51.90
47354;DHT22;50657;48.830;2.282;2022-12-20T04:30:24;18.80;52.00
47354;DHT22;50657;48.830;2.282;2022-12-20T04:32:51;18.70;52.00
47354;DHT22;50657;48.830;2.282;2022-12-20T04:35:20;18.70;52.00
47354;DHT22;50657;48.830;2.282;2022-12-20T04:37:47;18.80;52.00
47354;DHT22;50657;48.830;2.282;2022-12-20T04:40:16;18.80;52.10
47354;DHT22;50657;48.830;2.282;2022-12-20T04:42:47;18.70;52.00
47354;DHT22;50657;48.830;2.282;2022-12-20T04:45:15;18.80;52.00
47354;DHT22;50657;48.830;2.282;2022-12-20T04:47:42;18.70;52.00
47354;DHT22;50657;48.830;2.282;2022-12-20T04:50:11;18.80;52.10
47354;DHT22;50657;48.830;2.282;2022-12-20T04:52:40;18.80;52.00
47354;DHT22;50657;48.830;2.282;2022-12-20T04:55:26;18.80;52.10
47354;DHT22;50657;48.830;2.282;2022-12-20T04:57:54;18.70;52.10
47354;DHT22;50657;48.830;2.282;2022-12-20T05:00:21;18.80;52.20
47354;DHT22;50657;48.830;2.282;2022-12-20T05:02:57;18.80;52.20
47354;DHT22;50657;48.830;2.282;2022-12-20T05:05:25;18.70;52.10
47354;DHT22;50657;48.830;2.282;2022-12-20T05:07:54;18.80;52.20
47354;DHT22;50657;48.830;2.282;2022-12-20T05:10:22;18.80;52.20
47354;DHT22;50657;48.830;2.282;2022-12-20T05:12:52;18.80;52.20
47354;DHT22;50657;48.830;2.282;2022-12-20T05:15:30;18.80;52.30
47354;DHT22;50657;48.830;2.282;2022-12-20T05:17:58;18.80;52.30
47354;DHT22;50657;48.830;2.282;2022-12-20T05:20:28;18.80;52.40
47354;DHT22;50657;48.830;2.282;2022-12-20T05:22:56;18.80;52.30
47354;DHT22;50657;48.830;2.282;2022-12-20T05:25:46;18.80;52.30
47354;DHT22;50657;48.830;2.282;2022-12-20T05:28:32;18.80;52.30
47354;DHT22;50657;48.830;2.282;2022-12-20T05:30:59;18.80;52.40
47354;DHT22;50657;48.830;2.282;2022-12-20T05:33:30;18.80;52.40
47354;DHT22;50657;48.830;2.282;2022-12-20T05:35:57;18.80;52.50
47354;DHT22;50657;48.830;2.282;2022-12-20T05:38:25;18.80;52.50
47354;DHT22;50657;48.830;2.282;2022-12-20T05:40:52;18.80;52.50
47354;DHT22;50657;48.830;2.282;2022-12-20T05:43:19;18.80;52.50
47354;DHT22;50657;48.830;2.282;2022-12-20T05:45:51;18.80;52.50
47354;DHT22;50657;48.830;2.282;2022-12-20T05:48:28;18.80;52.50
47354;DHT22;50657;48.830;2.282;2022-12-20T05:50:55;18.80;52.40
47354;DHT22;50657;48.830;2.282;2022-12-20T05:53:28;18.80;52.80
47354;DHT22;50657;48.830;2.282;2022-12-20T05:55:59;18.90;52.60
47354;DHT22;50657;48.830;2.282;2022-12-20T05:58:33;18.90;52.60
47354;DHT22;50657;48.830;2.282;2022-12-20T06:01:05;18.90;52.60
47354;DHT22;50657;48.830;2.282;2022-12-20T06:03:37;18.90;52.60
47354;DHT22;50657;48.830;2.282;2022-12-20T06:06:15;18.90;52.60
47354;DHT22;50657;48.830;2.282;2022-12-20T06:08:46;18.90;52.60
47354;DHT22;50657;48.830;2.282;2022-12-20T06:11:22;18.90;52.60
47354;DHT22;50657;48.830;2.282;2022-12-20T06:13:55;18.90;52.60
47354;DHT22;50657;48.830;2.282;2022-12-20T06:16:23;18.90;52.60
47354;DHT22;50657;48.830;2.282;2022-12-20T06:18:53;18.90;52.50
47354;DHT22;50657;48.830;2.282;2022-12-20T06:21:20;18.90;52.50
47354;DHT22;50657;48.830;2.282;2022-12-20T06:23:48;18.90;52.50
47354;DHT22;50657;48.830;2.282;2022-12-20T06:26:16;18.90;52.50
47354;DHT22;50657;48.830;2.282;2022-12-20T06:28:49;19.00;52.60
47354;DHT22;50657;48.830;2.282;2022-12-20T06:31:21;19.00;52.50
47354;DHT22;50657;48.830;2.282;2022-12-20T06:33:53;19.00;52.50
47354;DHT22;50657;48.830;2.282;2022-12-20T06:36:22;19.00;52.50
47354;DHT22;50657;48.830;2.282;2022-12-20T06:38:50;19.00;52.40
47354;DHT22;50657;48.830;2.282;2022-12-20T06:41:17;19.00;52.40
47354;DHT22;50657;48.830;2.282;2022-12-20T06:43:45;19.00;52.40
47354;DHT22;50657;48.830;2.282;2022-12-20T06:46:12;19.00;52.40
47354;DHT22;50657;48.830;2.282;2022-12-20T06:48:39;19.00;52.30
47354;DHT22;50657;48.830;2.282;2022-12-20T06:51:10;19.00;52.30
47354;DHT22;50657;48.830;2.282;2022-12-20T06:53:37;19.00;52.30
47354;DHT22;50657;48.830;2.282;2022-12-20T06:56:05;19.00;52.20
47354;DHT22;50657;48.830;2.282;2022-12-20T06:58:32;19.00;51.80
47354;DHT22;50657;48.830;2.282;2022-12-20T07:01:03;19.10;52.10
47354;DHT22;50657;48.830;2.282;2022-12-20T07:03:30;19.10;52.50
47354;DHT22;50657;48.830;2.282;2022-12-20T07:05:57;19.20;52.80
47354;DHT22;50657;48.830;2.282;2022-12-20T07:08:25;19.30;52.90
47354;DHT22;50657;48.830;2.282;2022-12-20T07:10:52;19.40;52.90
47354;DHT22;50657;48.830;2.282;2022-12-20T07:13:19;19.50;52.80
47354;DHT22;50657;48.830;2.282;2022-12-20T07:15:47;19.70;52.80
47354;DHT22;50657;48.830;2.282;2022-12-20T07:18:14;19.80;52.60
47354;DHT22;50657;48.830;2.282;2022-12-20T07:20:41;19.90;52.40
47354;DHT22;50657;48.830;2.282;2022-12-20T07:23:08;20.00;52.30
47354;DHT22;50657;48.830;2.282;2022-12-20T07:25:36;20.10;52.20
47354;DHT22;50657;48.830;2.282;2022-12-20T07:28:03;20.30;52.10
47354;DHT22;50657;48.830;2.282;2022-12-20T07:30:31;20.40;52.10
47354;DHT22;50657;48.830;2.282;2022-12-20T07:32:59;20.50;52.50
47354;DHT22;50657;48.830;2.282;2022-12-20T07:35:26;20.70;51.90
47354;DHT22;50657;48.830;2.282;2022-12-20T07:37:53;20.70;51.80
47354;DHT22;50657;48.830;2.282;2022-12-20T07:40:20;20.90;51.70
47354;DHT22;50657;48.830;2.282;2022-12-20T07:42:49;21.00;51.80
47354;DHT22;50657;48.830;2.282;2022-12-20T07:45:17;21.10;51.80
47354;DHT22;50657;48.830;2.282;2022-12-20T07:47:44;21.30;51.70
47354;DHT22;50657;48.830;2.282;2022-12-20T07:50:11;21.30;51.50
47354;DHT22;50657;48.830;2.282;2022-12-20T07:52:39;21.50;51.50
47354;DHT22;50657;48.830;2.282;2022-12-20T07:55:10;21.60;51.40
47354;DHT22;50657;48.830;2.282;2022-12-20T07:57:41;21.60;51.10
47354;DHT22;50657;48.830;2.282;2022-12-20T08:00:12;21.70;51.00
47354;DHT22;50657;48.830;2.282;2022-12-20T08:02:42;21.90;51.00
47354;DHT22;50657;48.830;2.282;2022-12-20T08:05:10;22.00;51.00
47354;DHT22;50657;48.830;2.282;2022-12-20T08:07:39;22.10;50.80
47354;DHT22;50657;48.830;2.282;2022-12-20T08:10:08;22.20;50.60
47354;DHT22;50657;48.830;2.282;2022-12-20T08:12:37;22.40;50.50
47354;DHT22;50657;48.830;2.282;2022-12-20T08:15:05;22.50;50.30
47354;DHT22;50657;48.830;2.282;2022-12-20T08:17:35;22.60;49.80
47354;DHT22;50657;48.830;2.282;2022-12-20T08:20:03;22.70;49.40
47354;DHT22;50657;48.830;2.282;2022-12-20T08:22:32;22.80;49.10
47354;DHT22;50657;48.830;2.282;2022-12-20T08:24:59;22.80;48.70
47354;DHT22;50657;48.830;2.282;2022-12-20T08:27:26;22.80;48.40
47354;DHT22;50657;48.830;2.282;2022-12-20T08:29:53;22.80;48.20
47354;DHT22;50657;48.830;2.282;2022-12-20T08:32:21;22.80;48.00
47354;DHT22;50657;48.830;2.282;2022-12-20T08:34:51;22.80;47.80
47354;DHT22;50657;48.830;2.282;2022-12-20T08:37:18;22.80;47.80
47354;DHT22;50657;48.830;2.282;2022-12-20T08:39:45;22.80;47.80
47354;DHT22;50657;48.830;2.282;2022-12-20T08:42:13;22.80;47.70
47354;DHT22;50657;48.830;2.282;2022-12-20T08:44:40;22.80;47.60
47354;DHT22;50657;48.830;2.282;2022-12-20T08:47:07;22.80;47.50
47354;DHT22;50657;48.830;2.282;2022-12-20T08:49:35;22.80;47.50
47354;DHT22;50657;48.830;2.282;2022-12-20T08:52:04;22.80;47.30
47354;DHT22;50657;48.830;2.282;2022-12-20T08:54:31;22.80;47.40
47354;DHT22;50657;48.830;2.282;2022-12-20T08:56:58;22.80;47.30
47354;DHT22;50657;48.830;2.282;2022-12-20T08:59:25;22.80;47.20
47354;DHT22;50657;48.830;2.282;2022-12-20T09:01:52;22.80;47.00
47354;DHT22;50657;48.830;2.282;2022-12-20T09:04:20;22.80;46.90
47354;DHT22;50657;48.830;2.282;2022-12-20T09:06:47;22.80;46.70
47354;DHT22;50657;48.830;2.282;2022-12-20T09:09:16;22.80;46.90
47354;DHT22;50657;48.830;2.282;2022-12-20T09:11:43;22.80;47.00
47354;DHT22;50657;48.830;2.282;2022-12-20T09:14:10;22.80;47.00
47354;DHT22;50657;48.830;2.282;2022-12-20T09:16:37;22.80;47.00
47354;DHT22;50657;48.830;2.282;2022-12-20T09:19:04;22.80;47.10
47354;DHT22;50657;48.830;2.282;2022-12-20T09:21:32;22.80;47.20
47354;DHT22;50657;48.830;2.282;2022-12-20T09:23:59;22.80;47.20
47354;DHT22;50657;48.830;2.282;2022-12-20T09:26:27;22.80;47.10
47354;DHT22;50657;48.830;2.282;2022-12-20T09:28:55;22.90;47.10
47354;DHT22;50657;48.830;2.282;2022-12-20T09:31:23;22.90;47.10
47354;DHT22;50657;48.830;2.282;2022-12-20T09:33:54;22.80;47.90
47354;DHT22;50657;48.830;2.282;2022-12-20T09:36:23;22.90;47.60
47354;DHT22;50657;48.830;2.282;2022-12-20T09:38:51;22.90;47.70
47354;DHT22;50657;48.830;2.282;2022-12-20T09:41:24;22.90;47.80
47354;DHT22;50657;48.830;2.282;2022-12-20T09:43:53;23.00;47.80
47354;DHT22;50657;48.830;2.282;2022-12-20T09:46:21;23.00;47.80
47354;DHT22;50657;48.830;2.282;2022-12-20T09:48:49;23.10;47.70
47354;DHT22;50657;48.830;2.282;2022-12-20T09:51:29;23.20;47.60
47354;DHT22;50657;48.830;2.282;2022-12-20T09:54:06;23.30;47.40
47354;DHT22;50657;48.830;2.282;2022-12-20T09:56:36;23.40;47.70
47354;DHT22;50657;48.830;2.282;2022-12-20T09:59:10;23.40;47.20
47354;DHT22;50657;48.830;2.282;2022-12-20T10:01:42;23.60;47.20
47354;DHT22;50657;48.830;2.282;2022-12-20T10:04:21;23.80;47.20
47354;DHT22;50657;48.830;2.282;2022-12-20T10:06:59;23.90;47.10
47354;DHT22;50657;48.830;2.282;2022-12-20T10:09:46;24.10;46.90
47354;DHT22;50657;48.830;2.282;2022-12-20T10:12:25;24.30;46.70
47354;DHT22;50657;48.830;2.282;2022-12-20T10:15:18;24.40;46.60
47354;DHT22;50657;48.830;2.282;2022-12-20T10:18:08;24.60;46.40
47354;DHT22;50657;48.830;2.282;2022-12-20T10:20:49;24.80;46.20
47354;DHT22;50657;48.830;2.282;2022-12-20T10:23:24;24.90;45.90
47354;DHT22;50657;48.830;2.282;2022-12-20T10:25:55;25.10;45.70
47354;DHT22;50657;48.830;2.282;2022-12-20T10:28:25;25.20;45.50
47354;DHT22;50657;48.830;2.282;2022-12-20T10:30:58;25.30;45.30
47354;DHT22;50657;48.830;2.282;2022-12-20T10:33:26;25.50;45.10
47354;DHT22;50657;48.830;2.282;2022-12-20T10:35:55;25.60;44.80
47354;DHT22;50657;48.830;2.282;2022-12-20T10:38:43;25.60;44.30
47354;DHT22;50657;48.830;2.282;2022-12-20T10:41:15;25.70;43.90
47354;DHT22;50657;48.830;2.282;2022-12-20T10:43:45;25.60;43.50
47354;DHT22;50657;48.830;2.282;2022-12-20T10:46:15;25.60;43.40
47354;DHT22;50657;48.830;2.282;2022-12-20T10:48:45;25.60;43.20
47354;DHT22;50657;48.830;2.282;2022-12-20T10:51:15;25.50;43.10
47354;DHT22;50657;48.830;2.282;2022-12-20T10:53:53;25.40;43.10
47354;DHT22;50657;48.830;2.282;2022-12-20T10:56:22;25.30;43.00
47354;DHT22;50657;48.830;2.282;2022-12-20T10:58:57;25.30;43.00
47354;DHT22;50657;48.830;2.282;2022-12-20T11:01:28;25.20;43.50
47354;DHT22;50657;48.830;2.282;2022-12-20T11:03:59;25.10;42.80
47354;DHT22;50657;48.830;2.282;2022-12-20T11:06:39;25.00;42.80
47354;DHT22;50657;48.830;2.282;2022-12-20T11:09:24;24.90;42.80
47354;DHT22;50657;48.830;2.282;2022-12-20T11:12:00;24.90;42.80
47354;DHT22;50657;48.830;2.282;2022-12-20T11:14:29;24.80;42.90
47354;DHT22;50657;48.830;2.282;2022-12-20T11:17:01;24.70;43.00
47354;DHT22;50657;48.830;2.282;2022-12-20T11:19:46;24.70;43.10
47354;DHT22;50657;48.830;2.282;2022-12-20T11:22:25;24.60;43.10
47354;DHT22;50657;48.830;2.282;2022-12-20T11:25:02;24.60;43.10
47354;DHT22;50657;48.830;2.282;2022-12-20T11:27:38;24.60;43.20
47354;DHT22;50657;48.830;2.282;2022-12-20T11:30:16;24.50;43.20
47354;DHT22;50657;48.830;2.282;2022-12-20T11:36:02;24.40;43.20
47354;DHT22;50657;48.830;2.282;2022-12-20T11:38:38;24.30;43.30
47354;DHT22;50657;48.830;2.282;2022-12-20T11:41:17;24.30;43.40
47354;DHT22;50657;48.830;2.282;2022-12-20T11:43:58;24.20;43.50
47354;DHT22;50657;48.830;2.282;2022-12-20T11:46:40;24.20;43.60
47354;DHT22;50657;48.830;2.282;2022-12-20T11:52:14;24.00;43.70
47354;DHT22;50657;48.830;2.282;2022-12-20T11:54:46;24.00;43.80
47354;DHT22;50657;48.830;2.282;2022-12-20T11:57:19;23.80;43.80
47354;DHT22;50657;48.830;2.282;2022-12-20T11:59:52;23.80;43.90
47354;DHT22;50657;48.830;2.282;2022-12-20T12:02:26;23.80;44.00
47354;DHT22;50657;48.830;2.282;2022-12-20T12:04:57;23.70;44.10
47354;DHT22;50657;48.830;2.282;2022-12-20T12:07:29;23.60;44.20
47354;DHT22;50657;48.830;2.282;2022-12-20T12:10:01;23.50;44.80
47354;DHT22;50657;48.830;2.282;2022-12-20T12:12:32;23.50;44.40
47354;DHT22;50657;48.830;2.282;2022-12-20T12:15:04;23.40;44.50
47354;DHT22;50657;48.830;2.282;2022-12-20T12:17:38;23.40;44.70
47354;DHT22;50657;48.830;2.282;2022-12-20T12:20:21;23.30;44.70
47354;DHT22;50657;48.830;2.282;2022-12-20T12:22:57;23.20;44.80
47354;DHT22;50657;48.830;2.282;2022-12-20T12:25:25;23.20;45.00
47354;DHT22;50657;48.830;2.282;2022-12-20T12:27:53;23.10;45.00
47354;DHT22;50657;48.830;2.282;2022-12-20T12:30:28;23.00;45.10
47354;DHT22;50657;48.830;2.282;2022-12-20T12:33:04;23.00;45.20
47354;DHT22;50657;48.830;2.282;2022-12-20T12:36:00;22.90;45.30
47354;DHT22;50657;48.830;2.282;2022-12-20T12:38:51;22.90;45.30
47354;DHT22;50657;48.830;2.282;2022-12-20T12:41:34;22.80;45.50
47354;DHT22;50657;48.830;2.282;2022-12-20T12:44:34;22.80;45.60
47354;DHT22;50657;48.830;2.282;2022-12-20T12:47:05;22.70;45.70
47354;DHT22;50657;48.830;2.282;2022-12-20T12:49:34;22.70;45.90
47354;DHT22;50657;48.830;2.282;2022-12-20T12:52:03;22.60;45.90
47354;DHT22;50657;48.830;2.282;2022-12-20T12:54:36;22.60;46.00
47354;DHT22;50657;48.830;2.282;2022-12-20T12:57:10;22.60;46.20
47354;DHT22;50657;48.830;2.282;2022-12-20T12:59:43;22.50;46.20
47354;DHT22;50657;48.830;2.282;2022-12-20T13:02:33;22.50;46.00
47354;DHT22;50657;48.830;2.282;2022-12-20T13:05:31;22.40;46.20
47354;DHT22;50657;48.830;2.282;2022-12-20T13:07:58;22.40;46.60
47354;DHT22;50657;48.830;2.282;2022-12-20T13:11:01;22.30;46.90
47354;DHT22;50657;48.830;2.282;2022-12-20T13:13:28;22.30;47.10
47354;DHT22;50657;48.830;2.282;2022-12-20T13:16:12;22.30;47.50
47354;DHT22;50657;48.830;2.282;2022-12-20T13:18:55;22.30;47.80
47354;DHT22;50657;48.830;2.282;2022-12-20T13:21:37;22.40;48.10
47354;DHT22;50657;48.830;2.282;2022-12-20T13:27:34;22.50;48.30
47354;DHT22;50657;48.830;2.282;2022-12-20T13:30:22;22.60;48.50
47354;DHT22;50657;48.830;2.282;2022-12-20T13:32:54;22.70;48.30
47354;DHT22;50657;48.830;2.282;2022-12-20T13:35:31;22.80;48.30
47354;DHT22;50657;48.830;2.282;2022-12-20T13:37:59;22.90;48.30
47354;DHT22;50657;48.830;2.282;2022-12-20T13:40:34;23.00;48.30
47354;DHT22;50657;48.830;2.282;2022-12-20T13:43:06;23.20;48.10
47354;DHT22;50657;48.830;2.282;2022-12-20T13:45:37;23.20;47.90
47354;DHT22;50657;48.830;2.282;2022-12-20T13:48:06;23.40;47.80
47354;DHT22;50657;48.830;2.282;2022-12-20T13:50:39;23.40;47.60
47354;DHT22;50657;48.830;2.282;2022-12-20T13:53:15;23.50;47.50
47354;DHT22;50657;48.830;2.282;2022-12-20T13:55:43;23.60;47.40
47354;DHT22;50657;48.830;2.282;2022-12-20T13:58:17;23.70;47.40
47354;DHT22;50657;48.830;2.282;2022-12-20T14:00:46;23.80;47.40
47354;DHT22;50657;48.830;2.282;2022-12-20T14:03:19;23.80;47.10
47354;DHT22;50657;48.830;2.282;2022-12-20T14:05:47;23.90;47.10
47354;DHT22;50657;48.830;2.282;2022-12-20T14:08:17;24.00;47.10
47354;DHT22;50657;48.830;2.282;2022-12-20T14:10:46;24.00;47.10
47354;DHT22;50657;48.830;2.282;2022-12-20T14:13:21;24.00;46.90
47354;DHT22;50657;48.830;2.282;2022-12-20T14:15:49;24.10;46.70
47354;DHT22;50657;48.830;2.282;2022-12-20T14:18:19;24.00;46.50
47354;DHT22;50657;48.830;2.282;2022-12-20T14:20:48;24.00;46.30
47354;DHT22;50657;48.830;2.282;2022-12-20T14:23:19;24.00;46.20
47354;DHT22;50657;48.830;2.282;2022-12-20T14:25:49;23.90;46.10
47354;DHT22;50657;48.830;2.282;2022-12-20T14:28:28;23.80;46.00
47354;DHT22;50657;48.830;2.282;2022-12-20T14:30:57;23.80;46.00
47354;DHT22;50657;48.830;2.282;2022-12-20T14:40:49;23.40;48.10
47354;DHT22;50657;48.830;2.282;2022-12-20T14:43:24;23.40;50.00
47354;DHT22;50657;48.830;2.282;2022-12-20T14:46:14;23.40;49.50
47354;DHT22;50657;48.830;2.282;2022-12-20T14:48:42;23.30;49.50
47354;DHT22;50657;48.830;2.282;2022-12-20T14:51:09;23.30;49.60
47354;DHT22;50657;48.830;2.282;2022-12-20T14:53:38;23.30;49.70
47354;DHT22;50657;48.830;2.282;2022-12-20T14:56:13;23.30;49.70
47354;DHT22;50657;48.830;2.282;2022-12-20T14:58:41;23.30;49.80
47354;DHT22;50657;48.830;2.282;2022-12-20T15:01:18;23.30;49.80
47354;DHT22;50657;48.830;2.282;2022-12-20T15:03:49;23.40;49.90
47354;DHT22;50657;48.830;2.282;2022-12-20T15:06:31;23.40;49.90
47354;DHT22;50657;48.830;2.282;2022-12-20T15:09:00;23.40;49.80
47354;DHT22;50657;48.830;2.282;2022-12-20T15:11:28;23.40;49.70
47354;DHT22;50657;48.830;2.282;2022-12-20T15:13:55;23.50;49.60
47354;DHT22;50657;48.830;2.282;2022-12-20T15:16:25;23.50;49.40
47354;DHT22;50657;48.830;2.282;2022-12-20T15:18:54;23.50;49.40
47354;DHT22;50657;48.830;2.282;2022-12-20T15:21:27;23.50;49.20
47354;DHT22;50657;48.830;2.282;2022-12-20T15:23:55;23.50;48.80
47354;DHT22;50657;48.830;2.282;2022-12-20T15:26:24;23.50;48.50
47354;DHT22;50657;48.830;2.282;2022-12-20T15:28:53;23.40;48.20
47354;DHT22;50657;48.830;2.282;2022-12-20T15:31:22;23.30;48.10
47354;DHT22;50657;48.830;2.282;2022-12-20T15:33:50;23.30;48.20
47354;DHT22;50657;48.830;2.282;2022-12-20T15:36:22;23.20;48.10
47354;DHT22;50657;48.830;2.282;2022-12-20T15:38:51;23.10;48.30
47354;DHT22;50657;48.830;2.282;2022-12-20T15:41:21;23.00;48.30
47354;DHT22;50657;48.830;2.282;2022-12-20T15:43:50;23.00;48.30
47354;DHT22;50657;48.830;2.282;2022-12-20T15:46:19;22.90;48.30
47354;DHT22;50657;48.830;2.282;2022-12-20T15:48:46;22.90;48.50
47354;DHT22;50657;48.830;2.282;2022-12-20T15:51:16;22.80;48.50
47354;DHT22;50657;48.830;2.282;2022-12-20T15:53:43;22.80;48.70
47354;DHT22;50657;48.830;2.282;2022-12-20T15:56:16;22.80;48.80
47354;DHT22;50657;48.830;2.282;2022-12-20T15:58:47;22.70;48.80
47354;DHT22;50657;48.830;2.282;2022-12-20T16:01:19;22.60;48.90
47354;DHT22;50657;48.830;2.282;2022-12-20T16:03:47;22.60;49.00
47354;DHT22;50657;48.830;2.282;2022-12-20T16:06:14;22.60;49.00
47354;DHT22;50657;48.830;2.282;2022-12-20T16:08:41;22.50;49.00
47354;DHT22;50657;48.830;2.282;2022-12-20T16:11:16;22.50;49.00
47354;DHT22;50657;48.830;2.282;2022-12-20T16:13:44;22.40;49.00
47354;DHT22;50657;48.830;2.282;2022-12-20T16:16:15;22.40;49.10
47354;DHT22;50657;48.830;2.282;2022-12-20T16:18:45;22.30;49.10